Time;durP1;ratioP1;P1;durP2;ratioP2;P2;SDS_P1;SDS_P2;PMS_P1;PMS_P2;Temp;Humidity;BMP_temperature;BMP_pressure;BME280_temperature;BME280_humidity;BME280_pressure;Samples;Min_cycle;Max_cycle;Signal;HPM_P1;HPM_P2
2022/03/22 00:01:25;;;;;;;37.43;26.63;;;;;;;;;;4996595;28;20187;-69
2022/03/22 00:03:51;;;;;;;46.20;27.40;;;;;;;;;;4980306;28;20572;-69
2022/03/22 00:06:18;;;;;;;41.93;26.30;;;;;;;;;;4995214;28;20184;-69
2022/03/22 00:08:43;;;;;;;40.40;26.80;;;;;;;;;;4994235;28;20190;-69
2022/03/22 00:11:08;;;;;;;38.53;28.20;;;;;;;;;;4986350;28;20252;-69
2022/03/22 00:13:33;;;;;;;41.07;27.47;;;;;;;;;;4989055;28;20744;-69
2022/03/22 00:15:59;;;;;;;42.30;28.90;;;;;;;;;;4991330;28;20250;-69
2022/03/22 00:18:24;;;;;;;44.23;27.33;;;;;;;;;;4994210;28;20556;-69
2022/03/22 00:20:49;;;;;;;38.53;27.47;;;;;;;;;;4990538;28;20209;-70
2022/03/22 00:23:15;;;;;;;44.53;29.23;;;;;;;;;;4997648;28;20198;-69
2022/03/22 00:25:40;;;;;;;44.80;28.73;;;;;;;;;;4989165;28;20187;-69
2022/03/22 00:28:05;;;;;;;46.00;28.67;;;;;;;;;;4985884;28;20183;-70
2022/03/22 00:30:31;;;;;;;43.00;28.90;;;;;;;;;;4971595;28;20184;-69
2022/03/22 00:32:58;;;;;;;41.53;27.37;;;;;;;;;;4972143;28;20670;-69
2022/03/22 00:35:24;;;;;;;44.03;28.73;;;;;;;;;;4991884;28;20786;-69
2022/03/22 00:37:50;;;;;;;41.97;28.73;;;;;;;;;;4997792;28;20715;-70
2022/03/22 00:40:19;;;;;;;45.23;27.27;;;;;;;;;;4997027;28;20322;-69
2022/03/22 00:42:46;;;;;;;44.93;28.17;;;;;;;;;;4992605;28;20642;-69
2022/03/22 00:45:12;;;;;;;48.57;29.90;;;;;;;;;;4993297;28;20184;-69
2022/03/22 00:47:37;;;;;;;42.17;27.60;;;;;;;;;;4998543;28;20178;-69
2022/03/22 00:50:02;;;;;;;42.50;27.53;;;;;;;;;;4999598;28;20263;-68
2022/03/22 00:52:27;;;;;;;43.73;27.90;;;;;;;;;;5001545;28;20195;-69
2022/03/22 00:54:53;;;;;;;43.93;26.60;;;;;;;;;;4996419;28;20531;-69
2022/03/22 00:57:18;;;;;;;40.87;27.40;;;;;;;;;;4992867;28;20642;-69
2022/03/22 01:00:01;;;;;;;40.83;27.33;;;;;;;;;;4995112;28;20176;-69
2022/03/22 01:02:27;;;;;;;41.20;28.00;;;;;;;;;;4995782;28;20188;-69
2022/03/22 01:04:52;;;;;;;40.33;26.43;;;;;;;;;;4985280;28;20183;-69
2022/03/22 01:07:17;;;;;;;38.47;26.67;;;;;;;;;;4979244;28;22069;-69
2022/03/22 01:09:42;;;;;;;37.33;25.57;;;;;;;;;;4986387;28;20179;-69
2022/03/22 01:12:08;;;;;;;42.60;27.63;;;;;;;;;;5004102;28;20700;-69
2022/03/22 01:14:33;;;;;;;41.13;27.20;;;;;;;;;;4999463;28;20175;-70
2022/03/22 01:16:58;;;;;;;41.87;27.53;;;;;;;;;;5000733;28;20235;-68
2022/03/22 01:19:23;;;;;;;43.97;27.73;;;;;;;;;;4999001;28;20263;-69
2022/03/22 01:21:49;;;;;;;39.27;27.17;;;;;;;;;;4997175;28;20669;-69
2022/03/22 01:24:14;;;;;;;41.87;27.10;;;;;;;;;;5004290;28;20250;-69
2022/03/22 01:26:41;;;;;;;37.80;26.67;;;;;;;;;;5006676;28;20255;-68
2022/03/22 01:29:06;;;;;;;45.33;28.10;;;;;;;;;;4983897;28;20184;-68
2022/03/22 01:31:31;;;;;;;40.97;27.57;;;;;;;;;;4994556;28;20271;-68
2022/03/22 01:33:56;;;;;;;46.80;28.60;;;;;;;;;;4999532;28;20198;-69
2022/03/22 01:36:22;;;;;;;50.17;28.87;;;;;;;;;;4995290;28;20203;-68
2022/03/22 01:38:47;;;;;;;41.10;28.10;;;;;;;;;;4999801;28;20172;-68
2022/03/22 01:41:12;;;;;;;47.07;29.33;;;;;;;;;;5006003;28;20190;-68
2022/03/22 01:43:37;;;;;;;40.47;27.23;;;;;;;;;;5000357;28;20677;-69
2022/03/22 01:46:03;;;;;;;39.73;27.27;;;;;;;;;;5008816;28;20178;-68
2022/03/22 01:48:28;;;;;;;41.07;28.27;;;;;;;;;;4998465;28;20188;-68
2022/03/22 01:50:54;;;;;;;42.17;27.90;;;;;;;;;;4989033;28;20184;-68
2022/03/22 01:53:20;;;;;;;48.00;29.77;;;;;;;;;;5004759;28;20195;-68
2022/03/22 01:55:45;;;;;;;43.17;28.33;;;;;;;;;;5003768;28;20213;-68
2022/03/22 01:58:10;;;;;;;42.33;28.37;;;;;;;;;;5004891;28;20193;-69
2022/03/22 02:00:35;;;;;;;42.17;28.27;;;;;;;;;;5009771;28;20194;-69
2022/03/22 02:05:51;;;;;;;45.20;29.23;;;;;;;;;;5001396;28;20569;-69
2022/03/22 02:08:17;;;;;;;41.60;27.77;;;;;;;;;;5000252;28;20594;-69
2022/03/22 02:10:42;;;;;;;42.77;28.07;;;;;;;;;;4983207;28;20191;-68
2022/03/22 02:13:07;;;;;;;45.93;28.20;;;;;;;;;;4990742;28;20637;-68
2022/03/22 02:15:33;;;;;;;42.20;29.20;;;;;;;;;;5004790;28;20256;-69
2022/03/22 02:17:59;;;;;;;42.70;28.90;;;;;;;;;;4999700;28;20459;-68
2022/03/22 02:20:24;;;;;;;44.00;28.17;;;;;;;;;;4997898;28;20186;-68
2022/03/22 02:22:52;;;;;;;41.23;28.27;;;;;;;;;;4999702;28;20803;-69
2022/03/22 02:25:21;;;;;;;44.10;28.97;;;;;;;;;;5000824;28;20710;-70
2022/03/22 02:27:46;;;;;;;43.07;28.77;;;;;;;;;;5001029;28;20187;-69
2022/03/22 02:30:12;;;;;;;41.43;27.87;;;;;;;;;;4997342;28;20196;-69
2022/03/22 02:32:38;;;;;;;48.80;31.00;;;;;;;;;;5024024;22;20222;-70
2022/03/22 02:35:04;;;;;;;44.77;29.47;;;;;;;;;;5027014;28;20190;-69
2022/03/22 02:37:29;;;;;;;47.43;29.27;;;;;;;;;;5027366;28;20187;-69
2022/03/22 02:39:55;;;;;;;43.40;29.87;;;;;;;;;;5027646;28;20193;-71
2022/03/22 02:42:20;;;;;;;47.90;30.53;;;;;;;;;;5029959;28;20285;-69
2022/03/22 02:44:46;;;;;;;44.90;28.83;;;;;;;;;;5029811;28;20178;-69
2022/03/22 02:47:11;;;;;;;44.40;29.27;;;;;;;;;;5029601;28;20652;-69
2022/03/22 02:49:36;;;;;;;40.20;27.93;;;;;;;;;;5029974;28;20587;-69
2022/03/22 02:52:01;;;;;;;39.63;28.13;;;;;;;;;;5029624;28;20202;-67
2022/03/22 02:54:27;;;;;;;45.47;30.80;;;;;;;;;;5027956;28;20268;-68
2022/03/22 02:56:52;;;;;;;41.57;28.90;;;;;;;;;;5030032;28;20198;-70
2022/03/22 02:59:17;;;;;;;45.73;29.53;;;;;;;;;;5030658;28;20170;-70
2022/03/22 03:01:42;;;;;;;40.20;28.37;;;;;;;;;;5028984;28;20241;-70
2022/03/22 03:04:07;;;;;;;44.13;29.23;;;;;;;;;;5028855;28;20565;-68
2022/03/22 03:06:32;;;;;;;48.13;30.43;;;;;;;;;;5029684;28;20182;-70
2022/03/22 03:08:59;;;;;;;44.70;29.00;;;;;;;;;;5030590;28;20660;-68
2022/03/22 03:11:24;;;;;;;45.60;31.33;;;;;;;;;;5023093;28;20652;-67
2022/03/22 03:16:33;;;;;;;43.03;29.83;;;;;;;;;;5027710;28;20785;-68
2022/03/22 03:18:58;;;;;;;48.83;29.83;;;;;;;;;;5030442;28;20186;-69
2022/03/22 03:21:23;;;;;;;45.30;29.87;;;;;;;;;;5029487;28;20173;-69
2022/03/22 03:23:49;;;;;;;44.67;30.77;;;;;;;;;;5027872;28;20213;-68
2022/03/22 03:26:14;;;;;;;47.90;31.30;;;;;;;;;;5029795;28;20272;-68
2022/03/22 03:28:39;;;;;;;46.03;28.47;;;;;;;;;;5029773;28;20309;-68
2022/03/22 03:31:04;;;;;;;45.70;30.10;;;;;;;;;;5025148;28;20579;-68
2022/03/22 03:33:29;;;;;;;43.57;30.43;;;;;;;;;;5027654;28;20301;-67
2022/03/22 03:35:56;;;;;;;41.30;30.80;;;;;;;;;;5027653;28;20579;-68
2022/03/22 03:38:21;;;;;;;43.87;30.67;;;;;;;;;;5030295;28;20269;-68
2022/03/22 03:43:30;;;;;;;43.07;30.13;;;;;;;;;;5028557;28;20320;-68
2022/03/22 03:48:39;;;;;;;47.30;30.23;;;;;;;;;;5029551;28;20184;-68
2022/03/22 03:51:04;;;;;;;46.57;31.27;;;;;;;;;;5029158;28;20171;-68
2022/03/22 03:53:29;;;;;;;41.70;29.40;;;;;;;;;;5029361;28;20212;-68
2022/03/22 03:55:54;;;;;;;46.10;29.20;;;;;;;;;;5028721;28;20469;-68
2022/03/22 03:58:19;;;;;;;48.80;30.80;;;;;;;;;;5030206;28;20197;-67
2022/03/22 04:00:45;;;;;;;50.57;31.17;;;;;;;;;;5025255;28;20498;-68
2022/03/22 04:03:10;;;;;;;51.23;31.80;;;;;;;;;;5030738;28;20190;-68
2022/03/22 04:05:35;;;;;;;49.10;31.57;;;;;;;;;;5029957;28;20186;-68
2022/03/22 04:08:00;;;;;;;45.03;31.37;;;;;;;;;;5029132;28;20899;-68
2022/03/22 04:10:26;;;;;;;49.63;31.13;;;;;;;;;;5031036;28;20194;-67
2022/03/22 04:12:51;;;;;;;47.63;31.17;;;;;;;;;;5028922;28;20201;-68
2022/03/22 04:15:16;;;;;;;49.73;31.93;;;;;;;;;;5026904;28;20217;-68
2022/03/22 04:17:41;;;;;;;44.17;30.30;;;;;;;;;;5033290;28;20652;-68
2022/03/22 04:20:07;;;;;;;39.63;29.57;;;;;;;;;;5037966;28;20705;-68
2022/03/22 04:22:33;;;;;;;43.73;30.37;;;;;;;;;;5021658;28;20202;-68
2022/03/22 04:24:58;;;;;;;44.70;30.23;;;;;;;;;;5033470;28;20177;-67
2022/03/22 04:32:51;;;;;;;48.67;30.37;;;;;;;;;;5033030;28;20411;-68
2022/03/22 04:35:17;;;;;;;46.27;30.10;;;;;;;;;;5031002;28;20269;-68
2022/03/22 04:37:43;;;;;;;45.57;30.57;;;;;;;;;;5034879;28;20194;-68
2022/03/22 04:40:10;;;;;;;44.27;29.13;;;;;;;;;;5034677;28;20264;-68
2022/03/22 04:42:35;;;;;;;44.57;30.40;;;;;;;;;;5037978;28;20194;-67
2022/03/22 04:45:00;;;;;;;47.27;30.53;;;;;;;;;;5033659;28;20771;-68
2022/03/22 04:47:26;;;;;;;46.77;30.83;;;;;;;;;;5033879;28;20808;-68
2022/03/22 04:49:51;;;;;;;46.23;29.93;;;;;;;;;;5032559;28;20171;-67
2022/03/22 04:58:02;;;;;;;45.13;29.90;;;;;;;;;;5025611;28;20204;-68
2022/03/22 05:00:27;;;;;;;44.77;29.33;;;;;;;;;;5033449;28;20258;-69
2022/03/22 05:02:52;;;;;;;44.17;32.00;;;;;;;;;;5033992;28;20297;-69
2022/03/22 05:06:25;;;;;;;42.07;30.27;;;;;;;;;;5037082;28;20178;-68
2022/03/22 05:08:05;;;;;;;42.30;29.60;;;;;;;;;;5030374;28;20567;-68
2022/03/22 05:10:34;;;;;;;46.57;30.53;;;;;;;;;;5033712;28;20179;-68
2022/03/22 05:13:00;;;;;;;47.67;30.97;;;;;;;;;;5031620;28;20213;-68
2022/03/22 05:15:25;;;;;;;44.13;28.87;;;;;;;;;;5032981;28;20281;-68
2022/03/22 05:17:51;;;;;;;45.40;30.10;;;;;;;;;;5031215;28;20183;-69
2022/03/22 05:20:16;;;;;;;46.00;29.53;;;;;;;;;;5031749;28;20175;-68
2022/03/22 05:22:42;;;;;;;48.30;32.13;;;;;;;;;;5028262;28;20194;-68
2022/03/22 05:25:09;;;;;;;44.10;30.80;;;;;;;;;;5027253;28;20604;-68
2022/03/22 05:27:36;;;;;;;43.70;30.43;;;;;;;;;;5030312;28;20182;-67
2022/03/22 05:30:01;;;;;;;43.73;31.10;;;;;;;;;;5031578;28;20185;-68
2022/03/22 05:32:26;;;;;;;43.77;30.33;;;;;;;;;;5031618;28;20218;-68
2022/03/22 05:34:52;;;;;;;45.97;30.93;;;;;;;;;;5032068;28;20198;-68
2022/03/22 05:37:17;;;;;;;44.33;30.43;;;;;;;;;;5030773;28;20326;-68
2022/03/22 05:39:42;;;;;;;47.03;30.57;;;;;;;;;;5033136;28;20174;-68
2022/03/22 05:42:08;;;;;;;46.17;31.27;;;;;;;;;;5030731;28;20684;-68
2022/03/22 05:44:35;;;;;;;42.57;30.93;;;;;;;;;;5032373;28;20166;-68
2022/03/22 05:47:00;;;;;;;44.73;30.10;;;;;;;;;;5027739;28;20270;-68
2022/03/22 05:49:25;;;;;;;45.87;29.07;;;;;;;;;;5031630;28;20312;-68
2022/03/22 05:51:50;;;;;;;42.57;30.53;;;;;;;;;;5028696;28;20269;-68
2022/03/22 05:54:16;;;;;;;48.00;30.37;;;;;;;;;;5031277;28;20189;-68
2022/03/22 05:56:41;;;;;;;39.33;29.60;;;;;;;;;;5031704;28;20285;-68
2022/03/22 05:59:06;;;;;;;50.37;34.20;;;;;;;;;;5029179;28;20540;-68
2022/03/22 06:01:31;;;;;;;45.20;30.23;;;;;;;;;;5026754;28;20170;-68
2022/03/22 06:03:57;;;;;;;42.53;28.80;;;;;;;;;;5029157;28;20993;-68
2022/03/22 06:06:22;;;;;;;44.33;29.03;;;;;;;;;;5031402;28;20624;-69
2022/03/22 06:08:49;;;;;;;47.53;30.43;;;;;;;;;;5031303;28;20182;-69
2022/03/22 06:11:15;;;;;;;43.83;31.00;;;;;;;;;;5030787;28;20265;-69
2022/03/22 06:13:41;;;;;;;46.80;29.63;;;;;;;;;;5031372;28;20198;-69
2022/03/22 06:16:06;;;;;;;45.03;28.40;;;;;;;;;;5030740;28;20213;-68
2022/03/22 06:18:31;;;;;;;40.90;27.97;;;;;;;;;;5029955;28;20190;-68
2022/03/22 06:20:56;;;;;;;38.03;26.83;;;;;;;;;;5032339;28;20185;-68
2022/03/22 06:23:23;;;;;;;43.40;29.47;;;;;;;;;;5031737;28;20240;-68
2022/03/22 06:25:48;;;;;;;41.77;28.07;;;;;;;;;;5026200;28;20174;-68
2022/03/22 06:28:14;;;;;;;39.20;28.50;;;;;;;;;;5029607;28;20651;-69
2022/03/22 06:30:39;;;;;;;41.17;28.43;;;;;;;;;;5031952;28;20186;-68
2022/03/22 06:33:10;;;;;;;37.00;26.37;;;;;;;;;;5029621;28;20225;-68
2022/03/22 06:35:35;;;;;;;38.10;26.80;;;;;;;;;;5029258;28;20194;-68
2022/03/22 06:38:01;;;;;;;41.00;26.47;;;;;;;;;;5030293;28;20198;-68
2022/03/22 06:40:28;;;;;;;38.97;27.77;;;;;;;;;;5030461;28;20197;-68
2022/03/22 06:42:54;;;;;;;36.97;25.80;;;;;;;;;;5030217;28;20310;-68
2022/03/22 06:45:19;;;;;;;39.90;25.60;;;;;;;;;;5030540;28;20656;-68
2022/03/22 06:47:46;;;;;;;41.17;26.87;;;;;;;;;;5029341;28;20652;-68
2022/03/22 06:50:12;;;;;;;37.90;26.30;;;;;;;;;;5027606;28;20648;-69
2022/03/22 06:52:37;;;;;;;37.40;25.77;;;;;;;;;;5030606;28;20281;-71
2022/03/22 06:55:03;;;;;;;36.47;25.33;;;;;;;;;;5029059;28;20285;-68
2022/03/22 06:57:29;;;;;;;37.17;26.73;;;;;;;;;;5029396;28;20610;-68
2022/03/22 06:59:55;;;;;;;35.03;25.20;;;;;;;;;;5031714;28;20198;-68
2022/03/22 07:02:20;;;;;;;34.17;24.90;;;;;;;;;;5031815;28;20206;-68
2022/03/22 07:04:45;;;;;;;34.07;25.73;;;;;;;;;;5031709;28;20312;-68
2022/03/22 07:07:10;;;;;;;31.67;24.80;;;;;;;;;;5030920;28;20183;-68
2022/03/22 07:09:36;;;;;;;33.57;25.67;;;;;;;;;;5031496;28;20550;-69
2022/03/22 07:12:01;;;;;;;34.37;25.23;;;;;;;;;;5031863;28;20245;-69
2022/03/22 07:14:27;;;;;;;31.20;23.93;;;;;;;;;;5028928;28;20312;-69
2022/03/22 07:16:53;;;;;;;34.73;25.33;;;;;;;;;;5031404;28;20202;-69
2022/03/22 07:19:20;;;;;;;32.63;23.33;;;;;;;;;;5031738;28;20182;-70
2022/03/22 07:21:45;;;;;;;34.93;25.27;;;;;;;;;;5031381;28;20174;-69
2022/03/22 07:24:11;;;;;;;29.83;23.70;;;;;;;;;;5029765;28;20253;-69
2022/03/22 07:26:37;;;;;;;30.83;24.00;;;;;;;;;;5031335;28;20193;-69
2022/03/22 07:29:02;;;;;;;32.43;23.43;;;;;;;;;;5031392;28;20240;-69
2022/03/22 07:31:27;;;;;;;28.67;23.03;;;;;;;;;;5031277;28;20170;-69
2022/03/22 07:33:52;;;;;;;27.77;22.17;;;;;;;;;;5025929;28;20214;-67
2022/03/22 07:36:18;;;;;;;31.83;23.03;;;;;;;;;;5033592;28;20589;-70
2022/03/22 07:38:43;;;;;;;32.43;23.00;;;;;;;;;;5037541;28;20186;-69
2022/03/22 07:41:10;;;;;;;33.53;24.40;;;;;;;;;;5024404;28;20192;-69
2022/03/22 07:43:37;;;;;;;28.37;22.73;;;;;;;;;;5030863;28;20190;-69
2022/03/22 07:46:02;;;;;;;29.83;21.43;;;;;;;;;;5030652;28;20174;-69
2022/03/22 07:48:27;;;;;;;30.53;22.90;;;;;;;;;;5029874;28;20755;-69
2022/03/22 07:53:36;;;;;;;28.07;22.13;;;;;;;;;;5029560;28;20225;-69
2022/03/22 07:56:01;;;;;;;27.57;22.60;;;;;;;;;;5031202;28;20202;-69
2022/03/22 07:58:26;;;;;;;27.97;22.27;;;;;;;;;;5030167;28;20178;-69
2022/03/22 08:00:51;;;;;;;29.50;21.20;;;;;;;;;;5031367;28;20177;-69
2022/03/22 08:03:18;;;;;;;32.17;21.00;;;;;;;;;;5031142;28;20225;-69
2022/03/22 08:05:46;;;;;;;25.83;21.60;;;;;;;;;;5030956;28;20174;-68
2022/03/22 08:08:12;;;;;;;24.65;20.80;;;;;;;;;;5030239;28;20171;-69
2022/03/22 08:10:37;;;;;;;24.77;20.60;;;;;;;;;;5030467;28;20666;-69
2022/03/22 08:13:02;;;;;;;25.80;21.15;;;;;;;;;;5028692;28;20557;-69
2022/03/22 08:15:28;;;;;;;28.13;20.27;;;;;;;;;;5023397;28;20328;-67
2022/03/22 08:17:53;;;;;;;29.98;22.17;;;;;;;;;;5028465;28;20266;-69
2022/03/22 08:20:18;;;;;;;27.33;20.63;;;;;;;;;;5028108;28;20237;-69
2022/03/22 08:22:44;;;;;;;29.73;20.05;;;;;;;;;;5032026;28;20263;-70
2022/03/22 08:25:09;;;;;;;26.70;20.05;;;;;;;;;;5029226;28;20920;-69
2022/03/22 08:27:35;;;;;;;24.63;19.00;;;;;;;;;;5030768;28;20173;-70
2022/03/22 08:30:00;;;;;;;25.73;20.15;;;;;;;;;;5025366;28;20620;-70
2022/03/22 08:32:25;;;;;;;23.60;18.95;;;;;;;;;;5012795;28;20515;-69
2022/03/22 08:34:50;;;;;;;28.10;20.60;;;;;;;;;;5018205;28;20253;-69
2022/03/22 08:37:15;;;;;;;23.05;19.15;;;;;;;;;;5030488;28;20216;-69
2022/03/22 08:39:41;;;;;;;28.20;19.23;;;;;;;;;;5023625;28;20253;-69
2022/03/22 08:42:06;;;;;;;23.73;18.70;;;;;;;;;;5027542;28;20455;-69
2022/03/22 08:44:31;;;;;;;22.10;18.77;;;;;;;;;;5020695;28;20438;-70
2022/03/22 08:46:57;;;;;;;22.88;18.98;;;;;;;;;;5020068;28;20289;-67
2022/03/22 08:49:22;;;;;;;24.50;20.08;;;;;;;;;;5020159;28;20183;-70
2022/03/22 08:51:49;;;;;;;25.23;19.45;;;;;;;;;;5024185;28;20657;-70
2022/03/22 08:54:16;;;;;;;23.42;19.30;;;;;;;;;;5025835;28;20236;-69
2022/03/22 08:56:42;;;;;;;24.90;19.42;;;;;;;;;;5028735;28;20205;-69
2022/03/22 08:59:07;;;;;;;23.77;19.67;;;;;;;;;;5028719;28;20182;-69
2022/03/22 09:01:32;;;;;;;24.98;20.17;;;;;;;;;;5028867;28;20442;-69
2022/03/22 09:06:41;;;;;;;29.05;19.40;;;;;;;;;;5028537;28;20663;-69
2022/03/22 09:09:09;;;;;;;26.15;20.58;;;;;;;;;;5030354;28;20191;-68
2022/03/22 09:11:36;;;;;;;27.05;20.88;;;;;;;;;;5029820;28;20232;-68
2022/03/22 09:14:02;;;;;;;22.83;18.60;;;;;;;;;;5028344;28;20273;-68
2022/03/22 09:16:28;;;;;;;22.67;18.08;;;;;;;;;;5032975;28;20618;-68
2022/03/22 09:18:53;;;;;;;23.40;18.92;;;;;;;;;;5031421;28;20197;-68
2022/03/22 09:21:19;;;;;;;21.45;17.95;;;;;;;;;;5031284;28;20557;-69
2022/03/22 09:23:44;;;;;;;23.92;19.50;;;;;;;;;;5027835;28;20198;-68
2022/03/22 09:26:10;;;;;;;21.52;18.27;;;;;;;;;;5032721;28;20575;-69
2022/03/22 09:28:36;;;;;;;21.52;18.08;;;;;;;;;;5027777;28;20182;-67
2022/03/22 09:31:01;;;;;;;24.08;18.38;;;;;;;;;;5027145;28;20178;-66
2022/03/22 09:33:27;;;;;;;24.27;17.88;;;;;;;;;;5028270;28;20214;-67
2022/03/22 09:35:55;;;;;;;22.17;17.58;;;;;;;;;;5032209;28;20660;-67
2022/03/22 09:38:20;;;;;;;20.50;18.10;;;;;;;;;;5008814;28;20616;-66
2022/03/22 09:40:45;;;;;;;23.20;18.75;;;;;;;;;;5022280;28;20175;-67
2022/03/22 09:43:11;;;;;;;34.15;19.75;;;;;;;;;;5032989;28;20274;-67
2022/03/22 09:45:36;;;;;;;24.23;20.25;;;;;;;;;;5030204;28;20695;-67
2022/03/22 09:48:02;;;;;;;19.63;17.35;;;;;;;;;;5031659;28;20185;-67
2022/03/22 09:53:13;;;;;;;21.90;18.75;;;;;;;;;;5032518;28;20212;-66
2022/03/22 09:55:38;;;;;;;21.52;17.15;;;;;;;;;;5031336;28;20214;-67
2022/03/22 09:58:04;;;;;;;25.63;17.70;;;;;;;;;;5030179;28;20623;-66
2022/03/22 10:00:29;;;;;;;23.33;18.63;;;;;;;;;;5030685;28;20166;-66
2022/03/22 10:02:54;;;;;;;22.57;19.10;;;;;;;;;;5031209;28;20632;-66
2022/03/22 10:05:20;;;;;;;18.65;16.65;;;;;;;;;;5030869;28;20427;-66
2022/03/22 10:07:54;;;;;;;22.27;18.90;;;;;;;;;;5032286;28;20182;-67
2022/03/22 10:10:19;;;;;;;24.35;17.58;;;;;;;;;;5028010;28;20235;-67
2022/03/22 10:12:54;;;;;;;23.25;17.70;;;;;;;;;;5030985;28;20194;-67
2022/03/22 10:15:20;;;;;;;23.42;18.40;;;;;;;;;;5030317;28;20265;-67
2022/03/22 10:17:46;;;;;;;21.02;18.25;;;;;;;;;;5031771;28;20253;-67
2022/03/22 10:20:22;;;;;;;29.00;18.20;;;;;;;;;;5028591;28;20174;-67
2022/03/22 10:22:54;;;;;;;23.27;18.48;;;;;;;;;;5032484;28;20201;-67
2022/03/22 10:25:19;;;;;;;20.58;17.92;;;;;;;;;;5032494;28;20178;-67
2022/03/22 10:27:44;;;;;;;21.13;18.07;;;;;;;;;;5033039;28;20183;-67
2022/03/22 10:30:09;;;;;;;21.25;18.10;;;;;;;;;;5033456;28;20835;-67
2022/03/22 10:32:39;;;;;;;23.75;17.60;;;;;;;;;;5029624;28;20712;-67
2022/03/22 10:35:13;;;;;;;22.73;19.05;;;;;;;;;;5031741;28;20179;-67
2022/03/22 10:37:42;;;;;;;26.73;20.05;;;;;;;;;;5032722;28;20180;-67
2022/03/22 10:40:25;;;;;;;22.65;19.23;;;;;;;;;;5036717;28;20232;-67
2022/03/22 10:42:51;;;;;;;23.73;19.35;;;;;;;;;;5030913;28;20285;-67
2022/03/22 10:45:17;;;;;;;24.75;19.58;;;;;;;;;;5028748;28;20257;-67
2022/03/22 10:47:43;;;;;;;27.13;19.33;;;;;;;;;;5025369;28;20270;-67
2022/03/22 10:50:08;;;;;;;24.92;20.52;;;;;;;;;;5028642;28;20166;-67
2022/03/22 10:52:35;;;;;;;25.02;19.73;;;;;;;;;;5028146;28;20202;-67
2022/03/22 10:55:01;;;;;;;24.60;19.52;;;;;;;;;;5031850;28;20174;-67
2022/03/22 10:57:32;;;;;;;24.65;20.48;;;;;;;;;;5028647;28;20206;-67
2022/03/22 10:59:59;;;;;;;23.02;20.70;;;;;;;;;;5026578;28;20193;-67
2022/03/22 11:02:24;;;;;;;24.70;19.95;;;;;;;;;;5027061;28;20300;-67
2022/03/22 11:04:50;;;;;;;26.58;20.50;;;;;;;;;;5027822;28;20252;-68
2022/03/22 11:07:16;;;;;;;24.02;20.15;;;;;;;;;;5032023;28;20181;-68
2022/03/22 11:09:41;;;;;;;21.48;19.20;;;;;;;;;;5026268;28;20178;-72
2022/03/22 11:12:07;;;;;;;24.40;19.20;;;;;;;;;;5018793;28;20237;-74
2022/03/22 11:14:34;;;;;;;23.00;18.42;;;;;;;;;;5015282;28;20305;-69
2022/03/22 11:16:59;;;;;;;25.50;20.15;;;;;;;;;;5014628;28;20740;-72
2022/03/22 11:19:25;;;;;;;22.85;20.30;;;;;;;;;;5024820;28;20175;-71
2022/03/22 11:21:50;;;;;;;20.77;18.55;;;;;;;;;;5029920;28;20182;-72
2022/03/22 11:24:21;;;;;;;20.37;18.30;;;;;;;;;;5023673;28;20649;-72
2022/03/22 11:26:47;;;;;;;23.75;18.50;;;;;;;;;;5027994;28;20440;-72
2022/03/22 11:29:13;;;;;;;21.42;18.67;;;;;;;;;;5022054;28;20174;-73
2022/03/22 11:31:40;;;;;;;24.20;18.75;;;;;;;;;;5029115;28;20184;-73
2022/03/22 11:34:09;;;;;;;21.55;17.73;;;;;;;;;;5027726;28;20225;-67
2022/03/22 11:36:38;;;;;;;24.92;18.08;;;;;;;;;;5028594;28;20575;-67
2022/03/22 11:39:04;;;;;;;20.58;18.38;;;;;;;;;;5027840;28;20186;-67
2022/03/22 11:44:15;;;;;;;22.88;17.77;;;;;;;;;;5013199;28;20248;-67
2022/03/22 11:46:41;;;;;;;19.65;17.52;;;;;;;;;;5021009;28;20603;-67
2022/03/22 11:49:16;;;;;;;21.92;17.92;;;;;;;;;;5022201;28;20183;-68
2022/03/22 11:51:51;;;;;;;24.30;18.77;;;;;;;;;;5029956;28;20198;-67
2022/03/22 11:54:16;;;;;;;21.45;17.65;;;;;;;;;;5029306;28;20671;-67
2022/03/22 11:56:49;;;;;;;20.65;17.23;;;;;;;;;;5026043;28;20230;-67
2022/03/22 11:59:16;;;;;;;16.88;14.93;;;;;;;;;;5028741;28;20174;-67
2022/03/22 12:01:42;;;;;;;18.40;15.52;;;;;;;;;;5031186;28;20174;-67
2022/03/22 12:04:15;;;;;;;17.80;14.13;;;;;;;;;;5025162;28;20228;-67
2022/03/22 12:06:40;;;;;;;20.08;15.20;;;;;;;;;;5026299;28;20191;-67
2022/03/22 12:09:08;;;;;;;16.83;15.10;;;;;;;;;;5028866;28;20671;-67
2022/03/22 12:11:35;;;;;;;21.38;16.48;;;;;;;;;;5026970;28;20514;-67
2022/03/22 12:14:01;;;;;;;19.70;15.75;;;;;;;;;;5027814;28;20281;-68
2022/03/22 12:16:26;;;;;;;18.63;15.83;;;;;;;;;;5027176;28;20659;-67
2022/03/22 12:18:52;;;;;;;14.90;13.40;;;;;;;;;;5026911;28;20917;-67
2022/03/22 12:21:18;;;;;;;17.90;13.70;;;;;;;;;;5027031;28;20269;-67
2022/03/22 12:23:43;;;;;;;20.75;13.85;;;;;;;;;;5029816;28;20707;-66
2022/03/22 12:26:10;;;;;;;14.45;12.95;;;;;;;;;;5029412;28;20182;-66
2022/03/22 12:28:44;;;;;;;21.13;14.23;;;;;;;;;;5027408;28;20560;-68
2022/03/22 12:31:11;;;;;;;16.63;14.40;;;;;;;;;;5025662;28;20633;-67
2022/03/22 12:33:37;;;;;;;19.05;14.45;;;;;;;;;;5023510;28;20209;-67
2022/03/22 12:36:02;;;;;;;17.58;15.10;;;;;;;;;;5032044;28;20205;-67
2022/03/22 12:38:28;;;;;;;19.50;14.83;;;;;;;;;;5025325;28;20174;-67
2022/03/22 12:40:53;;;;;;;18.60;14.73;;;;;;;;;;5032682;28;20431;-67
2022/03/22 12:43:19;;;;;;;18.23;14.53;;;;;;;;;;5032011;28;20223;-68
2022/03/22 12:45:45;;;;;;;20.00;14.43;;;;;;;;;;5028330;28;20552;-68
2022/03/22 12:48:14;;;;;;;15.93;13.93;;;;;;;;;;5023045;28;20209;-67
2022/03/22 12:50:39;;;;;;;16.80;12.57;;;;;;;;;;5025772;28;20253;-66
2022/03/22 12:53:04;;;;;;;16.77;14.03;;;;;;;;;;5033561;28;20310;-66
2022/03/22 12:55:29;;;;;;;16.17;12.23;;;;;;;;;;5032512;28;20476;-67
2022/03/22 12:57:57;;;;;;;15.07;13.03;;;;;;;;;;5032928;28;20647;-67
2022/03/22 13:00:27;;;;;;;15.77;13.55;;;;;;;;;;5027528;28;20419;-67
2022/03/22 13:02:52;;;;;;;17.67;13.43;;;;;;;;;;5030844;28;20563;-67
2022/03/22 13:05:28;;;;;;;14.73;13.23;;;;;;;;;;5032094;28;20624;-67
2022/03/22 13:07:53;;;;;;;17.25;13.38;;;;;;;;;;5030679;28;20181;-67
2022/03/22 13:13:02;;;;;;;14.98;12.77;;;;;;;;;;5030111;28;20209;-67
2022/03/22 13:15:28;;;;;;;17.07;15.03;;;;;;;;;;5029540;28;20182;-67
2022/03/22 13:17:53;;;;;;;16.57;14.10;;;;;;;;;;5029568;28;20262;-66
2022/03/22 13:20:21;;;;;;;17.40;12.77;;;;;;;;;;5032266;28;20419;-67
2022/03/22 13:22:59;;;;;;;15.68;12.50;;;;;;;;;;5035877;28;20973;-67
2022/03/22 13:25:35;;;;;;;18.10;13.13;;;;;;;;;;5031149;28;20197;-67
2022/03/22 13:28:01;;;;;;;15.77;13.80;;;;;;;;;;5028970;28;20182;-67
2022/03/22 13:30:27;;;;;;;16.83;12.80;;;;;;;;;;5026008;28;20181;-67
2022/03/22 13:32:52;;;;;;;17.38;14.10;;;;;;;;;;5031605;28;20232;-67
2022/03/22 13:35:19;;;;;;;15.20;12.32;;;;;;;;;;5033040;28;20182;-67
2022/03/22 13:37:47;;;;;;;18.05;13.00;;;;;;;;;;5028172;28;20586;-67
2022/03/22 13:40:13;;;;;;;16.40;12.27;;;;;;;;;;5030064;28;20186;-67
2022/03/22 13:42:52;;;;;;;15.80;11.70;;;;;;;;;;5031672;28;20285;-67
2022/03/22 13:45:20;;;;;;;16.52;13.15;;;;;;;;;;5026928;28;20655;-67
2022/03/22 13:47:48;;;;;;;18.25;14.52;;;;;;;;;;5025902;28;20785;-67
2022/03/22 13:50:13;;;;;;;17.27;14.35;;;;;;;;;;5012985;28;20189;-67
2022/03/22 13:52:39;;;;;;;22.02;16.15;;;;;;;;;;5031235;28;20592;-67
2022/03/22 13:55:13;;;;;;;19.75;14.60;;;;;;;;;;5031698;28;20179;-67
2022/03/22 13:57:39;;;;;;;19.33;15.27;;;;;;;;;;5030961;28;20373;-67
2022/03/22 14:00:05;;;;;;;16.80;13.63;;;;;;;;;;5031785;28;20298;-67
2022/03/22 14:02:30;;;;;;;18.65;14.35;;;;;;;;;;5029702;28;20194;-67
2022/03/22 14:04:56;;;;;;;18.95;13.77;;;;;;;;;;5030441;28;20178;-67
2022/03/22 14:07:21;;;;;;;21.83;16.07;;;;;;;;;;5031458;28;20178;-68
2022/03/22 14:09:47;;;;;;;20.33;16.23;;;;;;;;;;5027979;28;20192;-67
2022/03/22 14:12:12;;;;;;;18.60;15.07;;;;;;;;;;5028477;28;20604;-67
2022/03/22 14:14:37;;;;;;;20.63;17.27;;;;;;;;;;5029529;28;20261;-68
2022/03/22 14:17:02;;;;;;;15.80;14.03;;;;;;;;;;5027923;28;20459;-68
2022/03/22 14:19:27;;;;;;;19.05;14.07;;;;;;;;;;5031874;28;20182;-67
2022/03/22 14:21:53;;;;;;;23.47;14.87;;;;;;;;;;5032409;28;20174;-67
2022/03/22 14:24:18;;;;;;;20.57;15.63;;;;;;;;;;5030685;28;20545;-67
2022/03/22 14:26:43;;;;;;;19.70;14.93;;;;;;;;;;5032370;28;20182;-67
2022/03/22 14:29:08;;;;;;;19.13;15.88;;;;;;;;;;5028749;28;20863;-67
2022/03/22 14:31:34;;;;;;;21.88;13.45;;;;;;;;;;5030072;28;20203;-67
2022/03/22 14:33:59;;;;;;;15.57;11.47;;;;;;;;;;5033893;28;20306;-67
2022/03/22 14:36:24;;;;;;;14.57;12.98;;;;;;;;;;5030829;28;20516;-68
2022/03/22 14:38:49;;;;;;;21.00;15.90;;;;;;;;;;5031757;28;20269;-68
2022/03/22 14:41:27;;;;;;;21.67;16.67;;;;;;;;;;5030154;28;20178;-68
2022/03/22 14:43:55;;;;;;;24.50;16.65;;;;;;;;;;5028887;28;20194;-68
2022/03/22 14:46:21;;;;;;;19.23;14.27;;;;;;;;;;5024174;28;20183;-68